createdAt,value
2023-02-19T00:01:47.396Z,101029.06
2023-02-19T00:04:16.620Z,101022.66
2023-02-19T00:06:44.722Z,101026.66
2023-02-19T00:09:13.275Z,101019.94
2023-02-19T00:11:40.606Z,101021.13
2023-02-19T00:14:08.157Z,101035.31
2023-02-19T00:16:37.198Z,101027.34
2023-02-19T00:19:06.902Z,101029.22
2023-02-19T00:21:33.763Z,101025.69
2023-02-19T00:24:05.520Z,101027.06
2023-02-19T00:26:32.944Z,101026.88
2023-02-19T00:29:01.202Z,101021.66
2023-02-19T00:31:33.015Z,101010.22
2023-02-19T00:34:03.309Z,101009.84
2023-02-19T00:36:30.917Z,101005.28
2023-02-19T00:38:57.588Z,101018.13
2023-02-19T00:41:26.789Z,101006.47
2023-02-19T00:43:56.435Z,101004.81
2023-02-19T00:46:25.158Z,100999.41
2023-02-19T00:48:54.569Z,100998.38
2023-02-19T00:51:23.238Z,101007.88
2023-02-19T00:53:50.419Z,101007.56
2023-02-19T00:56:17.383Z,101007.38
2023-02-19T00:58:44.071Z,101003.81
2023-02-19T01:01:11.686Z,100992.19
2023-02-19T01:03:39.537Z,100996.75
2023-02-19T01:06:08.672Z,101000.47
2023-02-19T01:08:35.717Z,101004.47
2023-02-19T01:11:03.714Z,101008.22
2023-02-19T01:13:30.401Z,100998.94
2023-02-19T01:16:20.313Z,100992.34
2023-02-19T01:18:48.423Z,100987.78
2023-02-19T01:21:18.250Z,100983.88
2023-02-19T01:23:45.018Z,100968.69
2023-02-19T01:26:18.161Z,100972.03
2023-02-19T01:28:45.042Z,100960.78
2023-02-19T01:31:18.633Z,100960.97
2023-02-19T01:33:54.415Z,100951.47
2023-02-19T01:36:21.546Z,100948.50
2023-02-19T01:38:48.601Z,100944.09
2023-02-19T01:41:21.560Z,100940.72
2023-02-19T01:44:00.233Z,100924.53
2023-02-19T01:46:34.980Z,100909.34
2023-02-19T01:49:25.946Z,100892.50
2023-02-19T01:51:56.464Z,100892.97
2023-02-19T01:54:26.576Z,100892.47
2023-02-19T01:56:55.539Z,100903.25
2023-02-19T01:59:22.498Z,100908.66
2023-02-19T02:01:49.654Z,100915.06
2023-02-19T02:04:18.655Z,100915.91
2023-02-19T02:06:56.600Z,100908.16
2023-02-19T02:09:46.249Z,100914.75
2023-02-19T02:12:13.094Z,100915.41
2023-02-19T02:14:45.257Z,100911.69
2023-02-19T02:17:48.743Z,100903.25
2023-02-19T02:20:15.307Z,100900.56
2023-02-19T02:22:57.834Z,100902.03
2023-02-19T02:25:36.453Z,100900.84
2023-02-19T02:28:21.480Z,100897.31
2023-02-19T02:30:56.516Z,100891.91
2023-02-19T02:33:39.598Z,100887.53
2023-02-19T02:36:16.609Z,100875.06
2023-02-19T02:38:45.286Z,100878.59
2023-02-19T02:41:14.028Z,100870.50
2023-02-19T02:43:40.945Z,100864.06
2023-02-19T02:46:11.376Z,100875.34
2023-02-19T02:48:59.988Z,100869.09
2023-02-19T02:51:28.512Z,100874.50
2023-02-19T02:54:19.821Z,100868.56
2023-02-19T02:56:48.886Z,100868.56
2023-02-19T02:59:17.720Z,100863.81
2023-02-19T03:02:14.009Z,100864.47
2023-02-19T03:05:18.071Z,100848.00
2023-02-19T03:07:56.580Z,100850.00
2023-02-19T03:10:40.998Z,100847.59
2023-02-19T03:13:34.249Z,100853.00
2023-02-19T03:16:30.102Z,100866.66
2023-02-19T03:19:18.232Z,100863.84
2023-02-19T03:21:51.072Z,100862.16
2023-02-19T03:24:41.577Z,100864.50
2023-02-19T03:27:11.241Z,100866.34
2023-02-19T03:29:39.988Z,100864.22
2023-02-19T03:32:32.796Z,100865.88
2023-02-19T03:35:11.984Z,100858.44
2023-02-19T03:37:53.430Z,100854.72
2023-02-19T03:40:25.361Z,100857.59
2023-02-19T03:43:00.710Z,100862.81
2023-02-19T03:45:53.495Z,100856.13
2023-02-19T03:48:36.767Z,100858.81
2023-02-19T03:51:24.787Z,100863.19
2023-02-19T03:54:01.589Z,100861.00
2023-02-19T03:56:52.921Z,100862.88
2023-02-19T03:59:32.265Z,100869.28
2023-02-19T04:02:06.460Z,100872.66
2023-02-19T04:04:38.506Z,100881.59
2023-02-19T04:07:05.573Z,100879.38
2023-02-19T04:09:38.061Z,100881.72
2023-02-19T04:12:06.801Z,100880.88
2023-02-19T04:14:42.663Z,100887.06
2023-02-19T04:17:19.654Z,100891.44
2023-02-19T04:19:49.989Z,100890.41
2023-02-19T04:22:17.477Z,100899.53
2023-02-19T04:24:50.329Z,100896.84
2023-02-19T04:27:17.924Z,100906.59
2023-02-19T04:29:44.616Z,100915.53
2023-02-19T04:32:12.577Z,100918.25
2023-02-19T04:34:39.733Z,100922.81
2023-02-19T04:37:06.829Z,100927.72
2023-02-19T04:39:33.701Z,100938.03
2023-02-19T04:42:00.282Z,100940.72
2023-02-19T04:44:26.818Z,100947.50
2023-02-19T04:46:53.493Z,100948.16
2023-02-19T04:49:20.036Z,100951.22
2023-02-19T04:51:46.596Z,100961.84
2023-02-19T04:54:13.187Z,100958.50
2023-02-19T04:56:39.986Z,100970.13
2023-02-19T04:59:06.875Z,100963.06
2023-02-19T05:01:33.502Z,100975.88
2023-02-19T05:04:00.124Z,100972.50
2023-02-19T05:06:27.469Z,100969.16
2023-02-19T05:08:54.075Z,100964.78
2023-02-19T05:11:20.645Z,100969.16
2023-02-19T05:13:47.221Z,100972.88
2023-02-19T05:16:16.173Z,100968.31
2023-02-19T05:18:45.190Z,100970.81
2023-02-19T05:21:13.026Z,100971.19
2023-02-19T05:23:39.995Z,100969.31
2023-02-19T05:26:14.218Z,100971.19
2023-02-19T05:28:40.765Z,100966.63
2023-02-19T05:31:09.206Z,100967.47
2023-02-19T05:33:37.293Z,100979.44
2023-02-19T05:36:12.505Z,100992.56
2023-02-19T05:38:40.452Z,100981.41
2023-02-19T05:41:15.784Z,100973.78
2023-02-19T05:43:44.147Z,100977.34
2023-02-19T05:46:13.476Z,100985.25
2023-02-19T05:48:40.910Z,100976.13
2023-02-19T05:51:10.689Z,100981.03
2023-02-19T05:53:38.015Z,100979.84
2023-02-19T05:56:05.114Z,100986.09
2023-02-19T05:58:31.702Z,100988.63
2023-02-19T06:00:58.461Z,100983.88
2023-02-19T06:03:25.056Z,100999.41
2023-02-19T06:05:51.633Z,101007.31
2023-02-19T06:08:18.330Z,101007.50
2023-02-19T06:10:44.943Z,101004.81
2023-02-19T06:13:11.540Z,101012.72
2023-02-19T06:15:38.370Z,101012.06
2023-02-19T06:18:05.120Z,101019.31
2023-02-19T06:20:32.970Z,101010.38
2023-02-19T06:22:59.607Z,101017.66
2023-02-19T06:25:26.163Z,101025.06
2023-02-19T06:27:52.703Z,101024.22
2023-02-19T06:30:19.461Z,101027.09
2023-02-19T06:32:46.038Z,101026.25
2023-02-19T06:35:12.574Z,101024.09
2023-02-19T06:37:39.156Z,101032.38
2023-02-19T06:40:06.169Z,101038.56
2023-02-19T06:42:33.239Z,101034.50
2023-02-19T06:44:59.881Z,101036.22
2023-02-19T06:47:26.465Z,101052.22
2023-02-19T06:49:52.996Z,101055.25
2023-02-19T06:52:19.640Z,101038.94
2023-02-19T06:54:46.603Z,101044.16
2023-02-19T06:57:13.192Z,101054.63
2023-02-19T06:59:39.784Z,101059.53
2023-02-19T07:02:06.504Z,101057.84
2023-02-19T07:04:33.116Z,101062.78
2023-02-19T07:07:00.236Z,101063.44
2023-02-19T07:09:28.576Z,101058.22
2023-02-19T07:11:55.283Z,101068.66
2023-02-19T07:14:22.195Z,101081.63
2023-02-19T07:16:49.210Z,101088.06
2023-02-19T07:19:16.101Z,101095.13
2023-02-19T07:21:42.893Z,101095.97
2023-02-19T07:24:10.389Z,101103.56
2023-02-19T07:26:37.001Z,101100.03
2023-02-19T07:29:04.473Z,101097.97
2023-02-19T07:31:31.074Z,101115.22
2023-02-19T07:33:57.709Z,101115.03
2023-02-19T07:36:25.419Z,101131.22
2023-02-19T07:38:56.690Z,101127.19
2023-02-19T07:41:24.535Z,101137.50
2023-02-19T07:43:51.858Z,101136.66
2023-02-19T07:46:18.445Z,101140.03
2023-02-19T07:48:45.249Z,101138.16
2023-02-19T07:51:17.414Z,101140.69
2023-02-19T07:53:43.998Z,101135.66
2023-02-19T07:56:12.937Z,101137.31
2023-02-19T07:58:39.949Z,101142.88
2023-02-19T08:01:12.043Z,101146.75
2023-02-19T08:03:38.954Z,101147.94
2023-02-19T08:06:06.569Z,101155.88
2023-02-19T08:08:33.291Z,101159.75
2023-02-19T08:11:22.748Z,101169.69
2023-02-19T08:13:50.373Z,101176.63
2023-02-19T08:16:29.647Z,101172.72
2023-02-19T08:19:03.991Z,101195.28
2023-02-19T08:21:31.678Z,101199.97
2023-02-19T08:23:59.610Z,101207.25
2023-02-19T08:26:26.190Z,101207.06
2023-02-19T08:28:52.866Z,101204.81
2023-02-19T08:31:19.558Z,101216.84
2023-02-19T08:33:46.454Z,101227.84
2023-02-19T08:36:13.014Z,101231.47
2023-02-19T08:38:39.611Z,101242.63
2023-02-19T08:41:08.925Z,101248.13
2023-02-19T08:43:36.477Z,101251.66
2023-02-19T08:46:03.693Z,101264.25
2023-02-19T08:48:30.553Z,101253.69
2023-02-19T08:50:59.264Z,101264.63
2023-02-19T08:53:26.876Z,101275.44
2023-02-19T08:55:53.622Z,101268.06
2023-02-19T08:58:20.322Z,101283.47
2023-02-19T09:00:47.408Z,101284.50
2023-02-19T09:03:13.995Z,101282.44
2023-02-19T09:05:41.134Z,101286.00
2023-02-19T09:08:07.722Z,101292.00
2023-02-19T09:10:34.364Z,101296.66
2023-02-19T09:13:02.472Z,101307.53
2023-02-19T09:15:29.741Z,101299.16
2023-02-19T09:17:56.589Z,101306.84
2023-02-19T09:20:23.358Z,101314.06
2023-02-19T09:22:50.218Z,101314.00
2023-02-19T09:25:16.804Z,101322.34
2023-02-19T09:27:43.501Z,101325.06
2023-02-19T09:30:10.524Z,101325.72
2023-02-19T09:32:37.098Z,101324.69
2023-02-19T09:35:03.776Z,101326.38
2023-02-19T09:37:31.267Z,101324.72
2023-02-19T09:39:59.086Z,101329.31
2023-02-19T09:42:32.174Z,101328.94
2023-02-19T09:45:01.140Z,101332.84
2023-02-19T09:47:31.316Z,101331.31
2023-02-19T09:50:06.521Z,101339.56
2023-02-19T09:52:42.763Z,101345.75
2023-02-19T09:55:23.991Z,101351.75
2023-02-19T09:57:51.894Z,101354.00
2023-02-19T10:00:24.997Z,101355.41
2023-02-19T10:02:53.995Z,101354.72
2023-02-19T10:05:22.727Z,101358.94
2023-02-19T10:07:53.060Z,101361.97
2023-02-19T10:10:30.062Z,101372.78
2023-02-19T10:13:11.441Z,101376.53
2023-02-19T10:15:46.841Z,101380.75
2023-02-19T10:18:17.030Z,101376.03
2023-02-19T10:20:43.820Z,101382.00
2023-02-19T10:23:13.362Z,101389.03
2023-02-19T10:25:45.840Z,101401.88
2023-02-19T10:28:19.076Z,101401.47
2023-02-19T10:30:51.626Z,101406.03
2023-02-19T10:33:18.469Z,101414.78
2023-02-19T10:35:56.213Z,101416.94
2023-02-19T10:38:38.535Z,101420.38
2023-02-19T10:41:14.105Z,101431.72
2023-02-19T10:43:45.771Z,101417.53
2023-02-19T10:46:19.056Z,101424.66
2023-02-19T10:48:52.204Z,101414.66
2023-02-19T10:51:21.674Z,101426.91
2023-02-19T10:53:50.633Z,101436.25
2023-02-19T10:56:28.895Z,101439.56
2023-02-19T10:58:55.494Z,101442.63
2023-02-19T11:01:25.686Z,101453.97
2023-02-19T11:04:13.087Z,101452.13
2023-02-19T11:06:40.228Z,101464.63
2023-02-19T11:09:20.412Z,101462.63
2023-02-19T11:11:52.214Z,101472.59
2023-02-19T11:14:22.699Z,101476.16
2023-02-19T11:17:00.104Z,101471.97
2023-02-19T11:19:44.216Z,101474.84
2023-02-19T11:22:29.620Z,101480.75
2023-02-19T11:25:01.206Z,101476.53
2023-02-19T11:27:27.749Z,101487.38
2023-02-19T11:29:54.323Z,101497.00
2023-02-19T11:32:21.050Z,101486.13
2023-02-19T11:34:48.290Z,101498.78
2023-02-19T11:37:17.045Z,101492.75
2023-02-19T11:39:46.520Z,101497.53
2023-02-19T11:42:36.700Z,101505.63
2023-02-19T11:45:24.471Z,101513.38
2023-02-19T11:48:07.013Z,101506.66
2023-02-19T11:51:03.511Z,101503.78
2023-02-19T11:53:37.283Z,101493.81
2023-02-19T11:56:33.981Z,101501.72
2023-02-19T11:59:05.339Z,101500.53
2023-02-19T12:02:09.456Z,101516.38
2023-02-19T12:04:47.780Z,101510.50
2023-02-19T12:07:30.013Z,101517.44
2023-02-19T12:10:21.173Z,101510.16
2023-02-19T12:13:10.649Z,101505.28
2023-02-19T12:15:46.155Z,101512.72
2023-02-19T12:18:37.586Z,101503.91
2023-02-19T12:21:42.581Z,101496.22
2023-02-19T12:24:12.072Z,101502.69
2023-02-19T12:27:15.983Z,101508.28
2023-02-19T12:29:51.480Z,101511.69
2023-02-19T12:32:47.461Z,101508.03
2023-02-19T12:35:35.699Z,101522.81
2023-02-19T12:38:23.573Z,101514.16
2023-02-19T12:41:13.183Z,101525.53
2023-02-19T12:44:09.816Z,101523.59
2023-02-19T12:46:39.903Z,101533.75
2023-02-19T12:49:39.290Z,101532.53
2023-02-19T12:52:24.766Z,101543.22
2023-02-19T12:54:56.249Z,101540.94
2023-02-19T12:57:36.905Z,101543.16
2023-02-19T13:00:07.646Z,101548.84
2023-02-19T13:02:56.730Z,101550.22
2023-02-19T13:05:46.533Z,101560.34
2023-02-19T13:09:03.533Z,101562.03
2023-02-19T13:11:41.148Z,101566.09
2023-02-19T13:14:34.295Z,101573.69
2023-02-19T13:17:09.357Z,101562.56
2023-02-19T13:19:37.289Z,101575.22
2023-02-19T13:22:37.805Z,101571.16
2023-02-19T13:25:07.666Z,101570.09
2023-02-19T13:27:43.086Z,101568.34
2023-02-19T13:30:42.155Z,101572.44
2023-02-19T13:33:37.794Z,101581.94
2023-02-19T13:36:24.573Z,101580.84
2023-02-19T13:38:51.782Z,101585.84
2023-02-19T13:41:40.753Z,101577.69
2023-02-19T13:44:16.993Z,101579.91
2023-02-19T13:46:45.703Z,101576.88
2023-02-19T13:49:36.522Z,101575.69
2023-02-19T13:52:29.206Z,101582.53
2023-02-19T13:55:33.053Z,101581.59
2023-02-19T13:58:33.800Z,101581.06
2023-02-19T14:01:11.862Z,101588.97
2023-02-19T14:04:06.633Z,101588.88
2023-02-19T14:10:51.960Z,101602.75
2023-02-19T14:13:46.268Z,101605.97
2023-02-19T14:16:39.054Z,101610.03
2023-02-19T14:19:33.651Z,101610.69
2023-02-19T14:22:00.230Z,101620.16
2023-02-19T14:24:27.090Z,101612.84
2023-02-19T14:26:56.749Z,101618.56
2023-02-19T14:29:23.446Z,101622.16
2023-02-19T14:31:50.330Z,101622.16
2023-02-19T14:34:22.736Z,101627.94
2023-02-19T14:37:01.545Z,101629.28
2023-02-19T14:39:35.222Z,101635.00
2023-02-19T14:42:22.875Z,101623.84
2023-02-19T14:44:57.277Z,101633.09
2023-02-19T14:47:27.496Z,101635.28
2023-02-19T14:50:22.634Z,101631.13
2023-02-19T14:52:54.496Z,101637.22
2023-02-19T14:55:27.235Z,101632.84
2023-02-19T14:57:56.618Z,101626.06
2023-02-19T15:00:23.216Z,101640.38
2023-02-19T15:02:51.631Z,101630.94
2023-02-19T15:05:30.821Z,101641.13
2023-02-19T15:08:06.416Z,101651.44
2023-02-19T15:10:35.076Z,101656.00
2023-02-19T15:13:06.325Z,101653.47
2023-02-19T15:15:37.465Z,101651.09
2023-02-19T15:18:05.449Z,101653.97
2023-02-19T15:20:37.886Z,101655.13
2023-02-19T15:23:10.665Z,101658.31
2023-02-19T15:25:38.651Z,101664.72
2023-02-19T15:28:23.451Z,101675.75
2023-02-19T15:30:51.171Z,101661.53
2023-02-19T15:33:20.405Z,101668.78
2023-02-19T15:35:55.990Z,101667.94
2023-02-19T15:38:22.906Z,101672.31
2023-02-19T15:40:50.140Z,101672.78
2023-02-19T15:43:30.685Z,101677.00
2023-02-19T15:46:17.788Z,101685.94
2023-02-19T15:49:09.443Z,101682.56
2023-02-19T15:51:43.835Z,101685.94
2023-02-19T15:54:27.187Z,101685.38
2023-02-19T15:57:00.370Z,101688.94
2023-02-19T15:59:40.039Z,101686.22
2023-02-19T16:02:11.890Z,101687.63
2023-02-19T16:04:39.912Z,101696.56
2023-02-19T16:07:06.501Z,101709.44
2023-02-19T16:09:40.037Z,101700.78
2023-02-19T16:12:24.671Z,101705.84
2023-02-19T16:14:51.254Z,101708.88
2023-02-19T16:17:23.000Z,101714.00
2023-02-19T16:19:56.768Z,101719.56
2023-02-19T16:22:27.114Z,101720.22
2023-02-19T16:24:59.646Z,101721.94
2023-02-19T16:27:32.774Z,101721.09
2023-02-19T16:30:04.575Z,101731.38
2023-02-19T16:32:31.189Z,101738.78
2023-02-19T16:34:57.812Z,101745.34
2023-02-19T16:37:38.447Z,101753.75
2023-02-19T16:40:07.765Z,101758.47
2023-02-19T16:42:55.245Z,101762.66
2023-02-19T16:45:21.832Z,101765.50
2023-02-19T16:47:48.576Z,101777.66
2023-02-19T16:50:18.487Z,101781.50
2023-02-19T16:52:56.533Z,101788.75
2023-02-19T16:55:23.617Z,101791.09
2023-02-19T16:57:50.323Z,101789.25
2023-02-19T17:00:19.788Z,101792.13
2023-02-19T17:02:51.540Z,101788.91
2023-02-19T17:05:19.581Z,101802.22
2023-02-19T17:07:46.369Z,101803.69
2023-02-19T17:10:25.084Z,101805.94
2023-02-19T17:12:52.666Z,101807.41
2023-02-19T17:15:19.274Z,101811.63
2023-02-19T17:17:45.825Z,101813.03
2023-02-19T17:20:27.412Z,101812.88
2023-02-19T17:22:55.578Z,101801.69
2023-02-19T17:25:22.795Z,101815.91
2023-02-19T17:27:49.573Z,101810.34
2023-02-19T17:30:31.302Z,101815.41
2023-02-19T17:32:57.938Z,101819.13
2023-02-19T17:35:24.763Z,101824.69
2023-02-19T17:37:53.332Z,101822.81
2023-02-19T17:40:32.154Z,101823.50
2023-02-19T17:42:59.876Z,101828.22
2023-02-19T17:45:26.498Z,101824.00
2023-02-19T17:47:53.160Z,101831.53
2023-02-19T17:50:26.740Z,101833.72
2023-02-19T17:52:53.333Z,101825.78
2023-02-19T17:55:20.062Z,101835.72
2023-02-19T17:57:48.708Z,101826.78
2023-02-19T18:00:18.759Z,101843.84
2023-02-19T18:02:45.316Z,101839.59
2023-02-19T18:05:11.954Z,101848.31
2023-02-19T18:07:38.630Z,101846.97
2023-02-19T18:10:07.266Z,101842.59
2023-02-19T18:12:33.805Z,101850.00
2023-02-19T18:15:00.457Z,101859.94
2023-02-19T18:17:27.247Z,101845.09
2023-02-19T18:19:54.177Z,101851.34
2023-02-19T18:22:20.902Z,101851.50
2023-02-19T18:24:49.746Z,101859.28
2023-02-19T18:27:18.501Z,101863.28
2023-02-19T18:29:48.632Z,101866.53
2023-02-19T18:32:15.345Z,101870.22
2023-02-19T18:34:41.906Z,101869.22
2023-02-19T18:37:08.472Z,101865.84
2023-02-19T18:39:34.996Z,101865.69
2023-02-19T18:42:02.237Z,101874.78
2023-02-19T18:44:28.882Z,101873.25
2023-02-19T18:46:55.498Z,101867.22
2023-02-19T18:49:22.175Z,101880.69
2023-02-19T18:51:48.866Z,101878.84
2023-02-19T18:54:15.657Z,101877.00
2023-02-19T18:56:46.609Z,101882.22
2023-02-19T18:59:14.389Z,101879.69
2023-02-19T19:01:41.343Z,101879.38
2023-02-19T19:04:08.169Z,101867.44
2023-02-19T19:06:37.762Z,101880.38
2023-02-19T19:09:05.376Z,101879.78
2023-02-19T19:11:32.439Z,101886.53
2023-02-19T19:13:59.017Z,101874.06
2023-02-19T19:16:27.659Z,101870.13
2023-02-19T19:18:55.104Z,101874.81
2023-02-19T19:21:21.968Z,101876.16
2023-02-19T19:23:48.726Z,101879.00
2023-02-19T19:26:15.963Z,101872.59
2023-02-19T19:28:46.492Z,101877.16
2023-02-19T19:31:18.485Z,101884.25
2023-02-19T19:33:47.562Z,101879.84
2023-02-19T19:36:18.344Z,101885.00
2023-02-19T19:38:45.658Z,101876.91
2023-02-19T19:41:17.564Z,101879.63
2023-02-19T19:43:44.190Z,101881.78
2023-02-19T19:46:11.168Z,101888.72
2023-02-19T19:48:40.830Z,101887.72
2023-02-19T19:51:08.068Z,101875.53
2023-02-19T19:53:34.633Z,101880.94
2023-02-19T19:56:01.442Z,101872.94
2023-02-19T19:58:28.103Z,101869.22
2023-02-19T20:00:54.762Z,101868.22
2023-02-19T20:03:21.337Z,101872.06
2023-02-19T20:05:50.305Z,101864.66
2023-02-19T20:08:18.022Z,101868.22
2023-02-19T20:10:45.502Z,101877.31
2023-02-19T20:13:16.526Z,101884.09
2023-02-19T20:15:43.102Z,101885.63
2023-02-19T20:18:09.870Z,101875.84
2023-02-19T20:20:36.471Z,101872.13
2023-02-19T20:23:06.195Z,101873.84
2023-02-19T20:25:32.775Z,101869.44
2023-02-19T20:27:59.598Z,101873.28
2023-02-19T20:30:26.225Z,101872.13
2023-02-19T20:32:53.732Z,101884.09
2023-02-19T20:35:20.391Z,101873.28
2023-02-19T20:37:48.081Z,101888.97
2023-02-19T20:40:18.151Z,101891.50
2023-02-19T20:42:44.752Z,101880.69
2023-02-19T20:45:11.425Z,101886.78
2023-02-19T20:47:40.188Z,101897.59
2023-02-19T20:50:07.809Z,101899.44
2023-02-19T20:52:34.373Z,101895.88
2023-02-19T20:55:00.920Z,101901.13
2023-02-19T20:57:27.606Z,101910.41
2023-02-19T20:59:54.206Z,101901.94
2023-02-19T21:02:29.196Z,101906.59
2023-02-19T21:04:56.797Z,101894.13
2023-02-19T21:07:24.883Z,101900.00
2023-02-19T21:09:52.402Z,101905.88
2023-02-19T21:12:20.794Z,101910.25
2023-02-19T21:14:47.497Z,101904.84
2023-02-19T21:17:14.172Z,101912.22
2023-02-19T21:19:40.854Z,101910.53
2023-02-19T21:22:07.507Z,101909.69
2023-02-19T21:24:34.184Z,101914.66
2023-02-19T21:27:00.779Z,101914.81
2023-02-19T21:29:27.426Z,101910.25
2023-02-19T21:31:56.331Z,101908.25
2023-02-19T21:34:26.526Z,101913.97
2023-02-19T21:36:53.837Z,101908.25
2023-02-19T21:39:22.686Z,101910.78
2023-02-19T21:41:49.377Z,101910.78
2023-02-19T21:44:16.202Z,101900.84
2023-02-19T21:46:42.861Z,101897.97
2023-02-19T21:49:10.392Z,101886.19
2023-02-19T21:51:42.495Z,101881.47
2023-02-19T21:54:17.940Z,101870.38
2023-02-19T21:56:44.832Z,101874.94
2023-02-19T21:59:11.444Z,101871.91
2023-02-19T22:01:42.118Z,101862.81
2023-02-19T22:04:11.148Z,101869.06
2023-02-19T22:06:39.553Z,101855.72
2023-02-19T22:09:08.064Z,101860.28
2023-02-19T22:11:34.718Z,101853.03
2023-02-19T22:14:01.355Z,101858.75
2023-02-19T22:16:28.828Z,101864.16
2023-02-19T22:18:57.613Z,101851.78
2023-02-19T22:21:27.276Z,101843.47
2023-02-19T22:23:54.917Z,101845.16
2023-02-19T22:26:24.420Z,101834.22
2023-02-19T22:28:51.550Z,101834.38
2023-02-19T22:31:20.467Z,101833.69
2023-02-19T22:33:47.135Z,101833.84
2023-02-19T22:36:21.550Z,101830.31
2023-02-19T22:38:49.145Z,101822.34
2023-02-19T22:41:17.632Z,101818.50
2023-02-19T22:43:45.314Z,101816.66
2023-02-19T22:46:15.373Z,101807.38
2023-02-19T22:48:42.528Z,101807.00
2023-02-19T22:51:14.223Z,101809.41
2023-02-19T22:53:52.349Z,101813.13
2023-02-19T22:56:20.787Z,101821.97
2023-02-19T22:58:47.328Z,101829.53
2023-02-19T23:01:14.999Z,101831.91
2023-02-19T23:03:55.579Z,101844.09
2023-02-19T23:06:33.412Z,101835.63
2023-02-19T23:09:04.828Z,101827.91
2023-02-19T23:11:34.209Z,101828.59
2023-02-19T23:14:00.914Z,101834.38
2023-02-19T23:16:27.884Z,101831.69
2023-02-19T23:18:55.196Z,101839.28
2023-02-19T23:21:22.842Z,101836.75
2023-02-19T23:23:49.583Z,101843.00
2023-02-19T23:26:16.617Z,101844.69
2023-02-19T23:28:44.295Z,101842.47
2023-02-19T23:31:11.766Z,101836.56
2023-02-19T23:33:38.451Z,101830.69
2023-02-19T23:36:06.208Z,101828.47
2023-02-19T23:38:32.804Z,101834.53
2023-02-19T23:40:59.967Z,101820.50
2023-02-19T23:43:26.513Z,101815.81
2023-02-19T23:45:53.312Z,101814.13
2023-02-19T23:48:19.953Z,101813.13
2023-02-19T23:50:46.548Z,101814.47
2023-02-19T23:53:13.140Z,101810.78
2023-02-19T23:55:39.729Z,101806.53
2023-02-19T23:58:06.376Z,101810.78
